Mount Patrick, Pennsylvania
Current Conditions -  °F | °C
As of 1:53 AM on Saturday 25 Oct 2014 (Local Time) from KSEG Reporting Station
Clear Clear  
Wind Chill: 42°   Ceiling: Unl
Heat Index: 42°   Visibility: 10mi
Dew Point: 38°   Wind: 0mph
Humidity: 85%   Direction: NA
Pressure: 29.94"   Gusts: NA
Location:  40.5726°N, 77.0172°W
Report Text: KSEG 250553Z AUTO 00000KT 10SM CLR 06/03 A2994 RMK AO2 SLP140 T00560033 10150 20050 55000
Loading
Personal Weather Stations






























Interactive Weather Map
Tropical Storm Tracking
New forecast layout! Learn more

10-Day Weather Forecast

Advertisements
Track Severe Weather on mobile